createdAt,value
2022-11-15T00:01:44.100Z,40.88
2022-11-15T00:04:14.084Z,39.50
2022-11-15T00:06:43.213Z,35.58
2022-11-15T00:09:12.373Z,45.90
2022-11-15T00:11:41.462Z,23.55
2022-11-15T00:14:10.721Z,27.55
2022-11-15T00:16:40.026Z,22.88
2022-11-15T00:19:09.204Z,19.67
2022-11-15T00:21:38.371Z,14.20
2022-11-15T00:24:07.807Z,22.35
2022-11-15T00:26:36.969Z,20.55
2022-11-15T00:29:06.062Z,17.00
2022-11-15T00:31:35.174Z,28.25
2022-11-15T00:34:04.331Z,24.27
2022-11-15T00:36:36.567Z,22.98
2022-11-15T00:39:10.294Z,28.52
2022-11-15T00:41:39.408Z,35.13
2022-11-15T00:44:08.583Z,23.00
2022-11-15T00:46:37.693Z,19.75
2022-11-15T00:49:10.495Z,13.98
2022-11-15T00:51:39.688Z,24.40
2022-11-15T00:54:08.884Z,21.95
2022-11-15T00:56:38.040Z,15.88
2022-11-15T00:59:07.319Z,14.80
2022-11-15T01:01:36.549Z,14.30
2022-11-15T01:04:05.932Z,19.13
2022-11-15T01:06:35.180Z,16.52
2022-11-15T01:09:04.401Z,16.27
2022-11-15T01:11:33.587Z,20.58
2022-11-15T01:14:02.725Z,13.77
2022-11-15T01:16:32.098Z,21.10
2022-11-15T01:19:01.943Z,14.43
2022-11-15T01:21:31.194Z,14.63
2022-11-15T01:24:00.927Z,7.68
2022-11-15T01:26:30.158Z,11.68
2022-11-15T01:28:59.485Z,8.07
2022-11-15T01:31:31.291Z,8.88
2022-11-15T01:34:01.022Z,6.47
2022-11-15T01:36:30.144Z,7.25
2022-11-15T01:39:01.440Z,7.57
2022-11-15T01:41:35.148Z,7.18
2022-11-15T01:44:41.618Z,12.30
2022-11-15T01:47:43.928Z,6.30
2022-11-15T01:50:25.830Z,4.78
2022-11-15T01:52:58.360Z,9.45
2022-11-15T01:55:33.855Z,9.65
2022-11-15T01:58:09.840Z,19.02
2022-11-15T02:00:39.212Z,8.95
2022-11-15T02:03:08.838Z,10.40
2022-11-15T02:05:40.505Z,14.10
2022-11-15T02:08:21.650Z,8.57
2022-11-15T02:10:51.042Z,9.95
2022-11-15T02:13:20.948Z,11.02
2022-11-15T02:16:15.726Z,8.93
2022-11-15T02:18:59.575Z,10.38
2022-11-15T02:22:31.502Z,10.13
2022-11-15T02:25:31.084Z,9.07
2022-11-15T02:28:19.367Z,10.18
2022-11-15T02:30:58.419Z,7.97
2022-11-15T02:33:55.842Z,11.05
2022-11-15T02:36:54.967Z,6.80
2022-11-15T02:39:52.774Z,11.27
2022-11-15T02:42:49.462Z,5.50
2022-11-15T02:45:38.012Z,12.52
2022-11-15T02:48:09.730Z,7.68
2022-11-15T02:50:39.589Z,7.25
2022-11-15T02:53:10.514Z,9.73
2022-11-15T02:55:53.121Z,6.78
2022-11-15T02:58:49.566Z,6.18
2022-11-15T03:01:36.836Z,6.35
2022-11-15T03:04:32.934Z,8.27
2022-11-15T03:07:53.977Z,3.58
2022-11-15T03:10:44.983Z,7.43
2022-11-15T03:13:49.480Z,5.35
2022-11-15T03:16:33.432Z,7.00
2022-11-15T03:19:43.815Z,14.40
2022-11-15T03:22:19.796Z,10.70
2022-11-15T03:24:55.479Z,10.45
2022-11-15T03:27:32.569Z,6.75
2022-11-15T03:30:08.958Z,9.30
2022-11-15T03:32:55.140Z,7.38
2022-11-15T03:35:29.216Z,12.85
2022-11-15T03:38:17.110Z,8.32
2022-11-15T03:41:02.880Z,12.13
2022-11-15T03:44:04.633Z,6.82
2022-11-15T03:46:43.551Z,8.55
2022-11-15T03:49:26.851Z,11.57
2022-11-15T03:51:59.986Z,11.13
2022-11-15T03:54:29.252Z,7.68
2022-11-15T03:56:58.675Z,7.32
2022-11-15T03:59:27.909Z,8.38
2022-11-15T04:01:57.099Z,5.25
2022-11-15T04:04:26.307Z,8.07
2022-11-15T04:06:55.568Z,14.68
2022-11-15T04:09:24.868Z,5.25
2022-11-15T04:11:54.050Z,7.45
2022-11-15T04:14:23.321Z,7.50
2022-11-15T04:16:52.516Z,4.80
2022-11-15T04:19:39.909Z,8.38
2022-11-15T04:22:29.630Z,7.38
2022-11-15T04:24:58.777Z,3.45
2022-11-15T04:27:27.944Z,20.10
2022-11-15T04:29:57.160Z,4.82
2022-11-15T04:32:26.354Z,9.57
2022-11-15T04:34:55.529Z,8.30
2022-11-15T04:37:24.729Z,7.28
2022-11-15T04:39:53.934Z,5.93
2022-11-15T04:42:23.097Z,10.55
2022-11-15T04:44:52.355Z,5.45
2022-11-15T04:47:21.543Z,5.85
2022-11-15T04:49:51.105Z,5.50
2022-11-15T04:52:21.450Z,9.40
2022-11-15T04:54:50.593Z,13.50
2022-11-15T04:57:19.893Z,4.40
2022-11-15T04:59:49.261Z,5.90
2022-11-15T05:02:18.480Z,14.48
2022-11-15T05:04:47.674Z,5.70
2022-11-15T05:07:17.015Z,14.65
2022-11-15T05:09:46.214Z,3.13
2022-11-15T05:12:15.401Z,15.20
2022-11-15T05:14:44.624Z,7.07
2022-11-15T05:17:13.912Z,7.47
2022-11-15T05:19:43.074Z,9.80
2022-11-15T05:22:12.225Z,5.22
2022-11-15T05:24:41.449Z,7.43
2022-11-15T05:27:10.653Z,4.45
2022-11-15T05:29:39.871Z,8.98
2022-11-15T05:32:12.296Z,4.55
2022-11-15T05:34:41.833Z,9.30
2022-11-15T05:37:11.024Z,4.30
2022-11-15T05:39:40.203Z,6.30
2022-11-15T05:42:19.067Z,7.38
2022-11-15T05:44:51.851Z,7.10
2022-11-15T05:47:27.253Z,9.80
2022-11-15T05:49:58.849Z,9.05
2022-11-15T05:52:36.287Z,13.05
2022-11-15T05:55:09.823Z,6.88
2022-11-15T05:57:39.285Z,4.07
2022-11-15T06:00:11.242Z,16.42
2022-11-15T06:02:40.472Z,3.83
2022-11-15T06:05:10.037Z,7.95
2022-11-15T06:07:39.249Z,10.70
2022-11-15T06:10:09.538Z,6.00
2022-11-15T06:12:38.820Z,8.18
2022-11-15T06:15:08.710Z,4.50
2022-11-15T06:17:37.872Z,7.85
2022-11-15T06:20:08.877Z,6.55
2022-11-15T06:22:38.106Z,8.32
2022-11-15T06:25:07.721Z,4.90
2022-11-15T06:27:36.957Z,5.43
2022-11-15T06:30:06.703Z,3.20
2022-11-15T06:32:35.983Z,3.80
2022-11-15T06:35:05.561Z,26.65
2022-11-15T06:37:36.215Z,5.15
2022-11-15T06:40:05.753Z,2.20
2022-11-15T06:42:34.898Z,3.15
2022-11-15T06:45:04.892Z,5.20
2022-11-15T06:47:34.096Z,6.50
2022-11-15T06:50:04.129Z,8.20
2022-11-15T06:52:34.862Z,7.55
2022-11-15T06:55:03.935Z,11.75
2022-11-15T06:57:34.233Z,9.27
2022-11-15T07:00:03.714Z,10.30
2022-11-15T07:02:33.236Z,9.95
2022-11-15T07:05:02.359Z,4.60
2022-11-15T07:07:31.600Z,2.47
2022-11-15T07:10:00.837Z,5.15
2022-11-15T07:12:29.992Z,6.53
2022-11-15T07:14:59.051Z,6.28
2022-11-15T07:17:28.166Z,6.55
2022-11-15T07:19:57.297Z,8.68
2022-11-15T07:22:26.390Z,4.18
2022-11-15T07:24:55.869Z,2.58
2022-11-15T07:30:08.540Z,4.88
2022-11-15T07:32:37.950Z,2.22
2022-11-15T07:35:07.467Z,5.22
2022-11-15T07:37:36.539Z,9.07
2022-11-15T07:40:06.137Z,6.40
2022-11-15T07:42:53.296Z,10.30
2022-11-15T07:45:29.423Z,3.05
2022-11-15T07:47:59.296Z,4.30
2022-11-15T07:50:33.152Z,3.72
2022-11-15T07:53:03.049Z,6.80
2022-11-15T07:55:32.337Z,4.30
2022-11-15T07:58:11.019Z,2.17
2022-11-15T08:00:41.101Z,5.78
2022-11-15T08:03:18.751Z,6.20
2022-11-15T08:05:54.176Z,7.70
2022-11-15T08:08:23.355Z,9.15
2022-11-15T08:10:52.521Z,6.45
2022-11-15T08:13:21.885Z,4.95
2022-11-15T08:15:54.868Z,1.95
2022-11-15T08:18:27.819Z,7.65
2022-11-15T08:21:02.171Z,3.72
2022-11-15T08:23:31.634Z,4.03
2022-11-15T08:26:06.406Z,6.50
2022-11-15T08:28:35.774Z,5.85
2022-11-15T08:31:06.420Z,6.35
2022-11-15T08:33:37.562Z,6.13
2022-11-15T08:36:07.080Z,8.90
2022-11-15T08:38:36.211Z,5.75
2022-11-15T08:41:08.084Z,9.48
2022-11-15T08:43:37.158Z,3.72
2022-11-15T08:46:06.461Z,6.05
2022-11-15T08:48:35.742Z,7.80
2022-11-15T08:51:05.489Z,9.93
2022-11-15T08:53:34.596Z,4.38
2022-11-15T08:56:04.287Z,4.85
2022-11-15T08:58:33.630Z,4.90
2022-11-15T09:01:03.003Z,5.65
2022-11-15T09:03:32.706Z,5.00
2022-11-15T09:06:03.821Z,5.45
2022-11-15T09:08:47.566Z,5.85
2022-11-15T09:11:19.906Z,6.30
2022-11-15T09:13:49.612Z,4.65
2022-11-15T09:16:19.078Z,11.23
2022-11-15T09:18:48.728Z,5.68
2022-11-15T09:21:17.906Z,8.57
2022-11-15T09:23:47.142Z,13.25
2022-11-15T09:26:16.550Z,3.90
2022-11-15T09:28:45.710Z,2.55
2022-11-15T09:31:19.291Z,9.02
2022-11-15T09:33:51.229Z,4.95
2022-11-15T09:36:20.418Z,9.45
2022-11-15T09:38:50.215Z,10.68
2022-11-15T09:41:44.588Z,7.32
2022-11-15T09:44:46.633Z,17.38
2022-11-15T09:47:59.062Z,10.20
2022-11-15T09:50:55.519Z,9.73
2022-11-15T09:54:01.052Z,15.10
2022-11-15T09:56:42.897Z,3.50
2022-11-15T09:59:48.075Z,7.90
2022-11-15T10:02:23.658Z,13.00
2022-11-15T10:04:55.797Z,14.05
2022-11-15T10:08:00.984Z,8.68
2022-11-15T10:11:15.769Z,7.32
2022-11-15T10:13:49.665Z,8.73
2022-11-15T10:17:00.763Z,9.77
2022-11-15T10:20:20.192Z,14.20
2022-11-15T10:22:56.911Z,14.73
2022-11-15T10:25:27.505Z,11.23
2022-11-15T10:28:39.759Z,9.90
2022-11-15T10:31:30.598Z,6.10
2022-11-15T10:34:24.672Z,8.32
2022-11-15T10:37:05.690Z,6.18
2022-11-15T10:39:38.296Z,9.65
2022-11-15T10:42:30.276Z,12.05
2022-11-15T10:45:00.006Z,11.50
2022-11-15T10:47:39.456Z,18.48
2022-11-15T10:50:33.633Z,17.40
2022-11-15T10:53:04.875Z,40.53
2022-11-15T10:55:36.290Z,52.25
2022-11-15T10:58:33.701Z,46.10
2022-11-15T11:01:27.392Z,46.72
2022-11-15T11:04:12.798Z,56.20
2022-11-15T11:07:02.512Z,33.33
2022-11-15T11:09:40.450Z,27.42
2022-11-15T11:12:14.142Z,25.38
2022-11-15T11:14:43.354Z,33.92
2022-11-15T11:17:51.900Z,98.18
2022-11-15T11:20:41.118Z,118.57
2022-11-15T11:23:40.392Z,160.98
2022-11-15T11:26:27.851Z,166.57
2022-11-15T11:29:33.747Z,153.20
2022-11-15T11:32:59.633Z,118.80
2022-11-15T11:35:36.537Z,79.95
2022-11-15T11:38:47.334Z,73.55
2022-11-15T11:42:12.745Z,46.75
2022-11-15T11:45:37.851Z,62.30
2022-11-15T11:48:40.546Z,76.57
2022-11-15T11:52:01.144Z,33.75
2022-11-15T11:54:49.360Z,26.92
2022-11-15T11:57:55.541Z,26.88
2022-11-15T12:00:30.490Z,41.97
2022-11-15T12:03:56.804Z,37.40
2022-11-15T12:06:45.047Z,32.40
2022-11-15T12:10:09.004Z,31.73
2022-11-15T12:13:23.683Z,40.53
2022-11-15T12:16:17.253Z,31.45
2022-11-15T12:19:01.317Z,24.27
2022-11-15T12:21:44.446Z,27.55
2022-11-15T12:24:45.346Z,31.08
2022-11-15T12:27:59.061Z,22.65
2022-11-15T12:30:46.455Z,26.35
2022-11-15T12:33:47.923Z,29.50
2022-11-15T12:36:26.149Z,23.58
2022-11-15T12:41:41.963Z,23.23
2022-11-15T12:44:34.102Z,19.05
2022-11-15T12:47:07.527Z,25.42
2022-11-15T12:49:40.112Z,28.83
2022-11-15T12:52:11.782Z,30.67
2022-11-15T12:54:44.011Z,29.10
2022-11-15T12:57:19.253Z,35.40
2022-11-15T13:00:00.542Z,38.72
2022-11-15T13:02:47.180Z,39.38
2022-11-15T13:05:22.287Z,27.35
2022-11-15T13:07:51.663Z,24.23
2022-11-15T13:10:32.729Z,27.73
2022-11-15T13:13:11.807Z,24.02
2022-11-15T13:15:59.348Z,15.95
2022-11-15T13:18:37.652Z,19.02
2022-11-15T13:21:43.402Z,15.75
2022-11-15T13:24:19.772Z,19.80
2022-11-15T13:26:49.087Z,17.25
2022-11-15T13:29:21.352Z,17.35
2022-11-15T13:31:51.407Z,17.40
2022-11-15T13:34:56.006Z,15.50
2022-11-15T13:37:25.138Z,13.13
2022-11-15T13:39:54.374Z,24.20
2022-11-15T13:42:31.071Z,15.88
2022-11-15T13:45:05.760Z,11.45
2022-11-15T13:47:37.786Z,15.60
2022-11-15T13:50:12.306Z,14.07
2022-11-15T13:52:46.170Z,14.23
2022-11-15T13:55:25.017Z,9.88
2022-11-15T13:57:58.955Z,16.13
2022-11-15T14:00:37.626Z,12.90
2022-11-15T14:03:29.824Z,10.32
2022-11-15T14:06:13.920Z,10.90
2022-11-15T14:09:09.740Z,26.23
2022-11-15T14:11:40.206Z,23.25
2022-11-15T14:14:15.192Z,11.73
2022-11-15T14:17:31.059Z,16.77
2022-11-15T14:20:08.228Z,2.90
2022-11-15T14:22:39.077Z,4.55
2022-11-15T14:25:32.444Z,2.67
2022-11-15T14:28:26.488Z,5.80
2022-11-15T14:31:04.983Z,7.88
2022-11-15T14:33:41.642Z,10.60
2022-11-15T14:36:19.955Z,7.00
2022-11-15T14:41:28.349Z,11.60
2022-11-15T14:43:59.872Z,11.52
2022-11-15T14:46:34.891Z,9.25
2022-11-15T14:49:11.837Z,5.63
2022-11-15T14:51:41.464Z,4.45
2022-11-15T14:54:15.387Z,7.18
2022-11-15T14:56:44.874Z,11.98
2022-11-15T14:59:14.181Z,9.13
2022-11-15T15:01:43.295Z,5.22
2022-11-15T15:04:13.724Z,13.20
2022-11-15T15:06:42.934Z,12.75
2022-11-15T15:09:12.106Z,10.20
2022-11-15T15:11:44.261Z,12.65
2022-11-15T15:14:13.909Z,7.35
2022-11-15T15:16:43.005Z,5.78
2022-11-15T15:19:13.103Z,12.10
2022-11-15T15:21:42.233Z,8.23
2022-11-15T15:24:17.421Z,12.25
2022-11-15T15:26:46.627Z,9.40
2022-11-15T15:29:15.696Z,15.55
2022-11-15T15:31:45.072Z,6.95
2022-11-15T15:34:16.760Z,10.23
2022-11-15T15:36:46.247Z,9.70
2022-11-15T15:39:15.331Z,4.22
2022-11-15T15:41:44.656Z,17.13
2022-11-15T15:44:13.753Z,7.63
2022-11-15T15:46:43.271Z,8.95
2022-11-15T15:49:13.091Z,11.70
2022-11-15T15:51:42.549Z,10.90
2022-11-15T15:54:11.694Z,9.00
2022-11-15T15:56:40.790Z,9.73
2022-11-15T15:59:09.908Z,7.25
2022-11-15T16:01:39.068Z,12.13
2022-11-15T16:04:08.248Z,13.90
2022-11-15T16:06:54.380Z,9.10
2022-11-15T16:09:46.424Z,5.18
2022-11-15T16:12:16.251Z,5.45
2022-11-15T16:14:45.780Z,9.93
2022-11-15T16:17:23.750Z,6.03
2022-11-15T16:19:53.002Z,5.05
2022-11-15T16:22:22.388Z,7.30
2022-11-15T16:24:51.568Z,4.50
2022-11-15T16:27:23.779Z,7.05
2022-11-15T16:29:53.355Z,5.03
2022-11-15T16:32:22.552Z,8.45
2022-11-15T16:34:51.727Z,3.95
2022-11-15T16:37:26.162Z,5.03
2022-11-15T16:40:00.726Z,5.45
2022-11-15T16:42:30.291Z,7.32
2022-11-15T16:44:59.448Z,8.07
2022-11-15T16:47:28.603Z,5.70
2022-11-15T16:49:57.936Z,7.90
2022-11-15T16:52:27.525Z,6.50
2022-11-15T16:54:56.659Z,13.00
2022-11-15T16:57:25.843Z,9.90
2022-11-15T16:59:55.069Z,5.38
2022-11-15T17:02:24.208Z,7.28
2022-11-15T17:04:53.334Z,9.55
2022-11-15T17:07:22.601Z,13.95
2022-11-15T17:09:51.872Z,5.32
2022-11-15T17:12:21.167Z,9.50
2022-11-15T17:14:50.308Z,8.38
2022-11-15T17:17:19.496Z,16.95
2022-11-15T17:19:48.679Z,13.00
2022-11-15T17:22:17.903Z,7.63
2022-11-15T17:24:47.241Z,10.30
2022-11-15T17:27:16.477Z,7.10
2022-11-15T17:29:45.688Z,6.90
2022-11-15T17:32:14.882Z,6.22
2022-11-15T17:34:44.045Z,10.32
2022-11-15T17:37:13.228Z,16.35
2022-11-15T17:39:42.498Z,12.93
2022-11-15T17:42:11.827Z,14.50
2022-11-15T17:44:41.006Z,8.77
2022-11-15T17:47:10.211Z,10.50
2022-11-15T17:49:41.763Z,7.82
2022-11-15T17:52:10.988Z,10.75
2022-11-15T17:54:40.145Z,7.78
2022-11-15T17:57:09.335Z,5.30
2022-11-15T17:59:38.463Z,9.27
2022-11-15T18:02:07.597Z,17.55
2022-11-15T18:04:36.868Z,11.23
2022-11-15T18:07:06.029Z,9.18
2022-11-15T18:09:35.242Z,7.75
2022-11-15T18:12:04.501Z,8.15
2022-11-15T18:14:33.660Z,7.80
2022-11-15T18:17:02.825Z,7.35
2022-11-15T18:19:32.005Z,7.55
2022-11-15T18:22:02.320Z,11.82
2022-11-15T18:24:36.895Z,5.20
2022-11-15T18:27:08.139Z,7.57
2022-11-15T18:29:38.931Z,4.38
2022-11-15T18:32:13.359Z,5.30
2022-11-15T18:34:42.735Z,15.15
2022-11-15T18:37:12.144Z,6.93
2022-11-15T18:39:41.295Z,9.63
2022-11-15T18:42:10.549Z,10.10
2022-11-15T18:44:39.769Z,8.02
2022-11-15T18:47:08.944Z,14.07
2022-11-15T18:49:38.168Z,13.57
2022-11-15T18:52:07.392Z,5.40
2022-11-15T18:54:36.558Z,3.88
2022-11-15T18:57:05.848Z,6.30
2022-11-15T18:59:35.037Z,5.63
2022-11-15T19:02:04.265Z,5.90
2022-11-15T19:04:33.324Z,12.63
2022-11-15T19:07:02.433Z,7.93
2022-11-15T19:09:33.670Z,7.60
2022-11-15T19:12:02.984Z,7.50
2022-11-15T19:14:32.192Z,8.07
2022-11-15T19:17:01.399Z,8.45
2022-11-15T19:19:30.789Z,6.60
2022-11-15T19:22:00.408Z,8.88
2022-11-15T19:24:30.935Z,8.25
2022-11-15T19:27:00.145Z,5.60
2022-11-15T19:29:29.220Z,12.68
2022-11-15T19:31:58.380Z,9.35
2022-11-15T19:34:27.440Z,11.52
2022-11-15T19:36:56.631Z,9.65
2022-11-15T19:39:25.763Z,11.07
2022-11-15T19:41:57.513Z,9.18
2022-11-15T19:44:28.198Z,6.10
2022-11-15T19:46:57.411Z,7.53
2022-11-15T19:49:28.390Z,8.73
2022-11-15T19:51:57.726Z,5.35
2022-11-15T19:54:27.520Z,8.48
2022-11-15T19:56:56.674Z,8.30
2022-11-15T19:59:25.920Z,6.65
2022-11-15T20:01:55.065Z,13.57
2022-11-15T20:04:24.199Z,8.13
2022-11-15T20:06:53.522Z,7.93
2022-11-15T20:09:22.758Z,11.38
2022-11-15T20:11:52.053Z,6.10
2022-11-15T20:14:21.283Z,17.17
2022-11-15T20:16:54.247Z,8.82
2022-11-15T20:19:24.081Z,9.25
2022-11-15T20:21:53.283Z,10.18
2022-11-15T20:24:22.449Z,9.30
2022-11-15T20:26:51.597Z,7.35
2022-11-15T20:29:20.836Z,7.95
2022-11-15T20:31:49.981Z,5.82
2022-11-15T20:34:19.138Z,22.48
2022-11-15T20:36:48.319Z,16.90
2022-11-15T20:39:17.542Z,12.68
2022-11-15T20:41:46.765Z,6.85
2022-11-15T20:44:16.203Z,8.18
2022-11-15T20:46:45.363Z,15.63
2022-11-15T20:49:14.556Z,14.57
2022-11-15T20:51:44.324Z,9.32
2022-11-15T20:54:13.392Z,10.48
2022-11-15T20:56:42.501Z,6.22
2022-11-15T20:59:11.640Z,5.15
2022-11-15T21:01:40.830Z,14.90
2022-11-15T21:04:10.015Z,7.80
2022-11-15T21:06:39.135Z,5.07
2022-11-15T21:09:27.664Z,11.13
2022-11-15T21:12:14.821Z,9.55
2022-11-15T21:14:49.977Z,12.38
2022-11-15T21:17:19.455Z,8.88
2022-11-15T21:19:48.566Z,6.65
2022-11-15T21:22:20.447Z,11.80
2022-11-15T21:24:49.565Z,9.50
2022-11-15T21:27:20.285Z,11.02
2022-11-15T21:29:52.095Z,9.85
2022-11-15T21:32:21.662Z,11.32
2022-11-15T21:34:50.714Z,8.95
2022-11-15T21:37:19.843Z,8.63
2022-11-15T21:39:48.969Z,7.10
2022-11-15T21:42:18.104Z,8.50
2022-11-15T21:44:47.334Z,11.85
2022-11-15T21:47:16.600Z,7.78
2022-11-15T21:49:45.889Z,7.13
2022-11-15T21:52:15.380Z,11.02
2022-11-15T21:54:45.500Z,9.75
2022-11-15T21:57:14.596Z,7.93
2022-11-15T22:00:03.496Z,8.77
2022-11-15T22:02:32.666Z,8.57
2022-11-15T22:05:01.762Z,9.38
2022-11-15T22:07:31.047Z,7.18
2022-11-15T22:10:00.167Z,8.88
2022-11-15T22:12:29.896Z,6.63
2022-11-15T22:14:59.171Z,9.00
2022-11-15T22:17:48.259Z,8.80
2022-11-15T22:20:42.908Z,9.43
2022-11-15T22:23:07.912Z,10.50
2022-11-15T22:25:37.031Z,11.52
2022-11-15T22:28:06.316Z,9.45
2022-11-15T22:30:35.527Z,8.10
2022-11-15T22:33:04.853Z,8.82
2022-11-15T22:35:36.461Z,7.63
2022-11-15T22:38:05.723Z,8.50
2022-11-15T22:40:35.458Z,8.73
2022-11-15T22:43:05.810Z,8.20
2022-11-15T22:45:35.804Z,8.07
2022-11-15T22:48:04.986Z,13.10
2022-11-15T22:50:34.190Z,12.52
2022-11-15T22:53:03.305Z,7.22
2022-11-15T22:55:32.406Z,6.50
2022-11-15T22:58:01.572Z,9.73
2022-11-15T23:00:30.733Z,20.95
2022-11-15T23:02:59.840Z,9.45
2022-11-15T23:05:29.469Z,14.27
2022-11-15T23:07:58.571Z,11.00
2022-11-15T23:10:46.187Z,12.95
2022-11-15T23:13:19.251Z,9.70
2022-11-15T23:16:10.388Z,13.90
2022-11-15T23:18:43.133Z,10.38
2022-11-15T23:21:46.003Z,8.65
2022-11-15T23:24:16.795Z,9.48
2022-11-15T23:26:48.427Z,10.25
2022-11-15T23:29:21.410Z,11.15
2022-11-15T23:32:09.315Z,10.20
2022-11-15T23:34:47.411Z,11.43
2022-11-15T23:37:17.869Z,6.43
2022-11-15T23:39:49.935Z,13.95
2022-11-15T23:42:20.539Z,13.05
2022-11-15T23:44:51.502Z,20.23
2022-11-15T23:47:21.495Z,24.92
2022-11-15T23:49:50.976Z,14.68
2022-11-15T23:52:20.197Z,15.60
2022-11-15T23:54:49.406Z,18.17
2022-11-15T23:57:18.572Z,14.52
2022-11-15T23:59:47.727Z,12.40
